Time,TemperatureF,DewpointF,PressureIn,WindDirection,WindDirectionDegrees,WindSpeedMPH,WindSpeedGustMPH,Humidity,HourlyPrecipIn,Conditions,Clouds,dailyrainin,SoftwareType,DateUTC
2013-11-07 08:13:00,46.7,43.7,29.72,West,270,0.0,0.0,89,0.00,,,0.00,WUHU216HW,2013-11-07 07:13:00,
2013-11-07 08:14:00,46.7,43.7,29.72,West,270,0.0,0.0,89,0.00,,,0.00,WUHU216HW,2013-11-07 07:14:00,
2013-11-07 08:19:00,47.4,44.2,29.71,West,270,2.9,4.6,89,0.00,,,0.00,WUHU216HW,2013-11-07 07:19:00,
2013-11-07 08:24:00,47.8,44.8,29.71,West,270,3.1,6.9,89,0.00,,,0.00,WUHU216HW,2013-11-07 07:24:00,
2013-11-07 08:29:00,48.0,44.9,29.71,NW,315,2.2,6.9,89,0.00,,,0.00,WUHU216HW,2013-11-07 07:29:00,
2013-11-07 08:34:00,48.2,44.8,29.72,WNW,293,6.7,6.7,88,0.00,,,0.00,WUHU216HW,2013-11-07 07:34:00,
2013-11-07 08:39:00,48.7,45.3,29.73,WNW,293,5.3,6.7,88,0.00,,,0.00,WUHU216HW,2013-11-07 07:39:00,
2013-11-07 08:44:00,49.2,45.8,29.74,WNW,293,5.8,5.8,88,0.00,,,0.00,WUHU216HW,2013-11-07 07:44:00,
2013-11-07 08:49:00,49.6,45.8,29.74,WSW,248,2.6,6.0,87,0.00,,,0.00,WUHU216HW,2013-11-07 07:49:00,
2013-11-07 08:54:00,49.2,45.5,29.73,WSW,248,7.1,7.1,87,0.00,,,0.00,WUHU216HW,2013-11-07 07:54:00,
2013-11-07 08:59:00,49.4,45.6,29.73,SSW,203,2.4,7.8,87,0.00,,,0.00,WUHU216HW,2013-11-07 07:59:00,
2013-11-07 09:04:00,49.6,45.5,29.74,West,270,3.8,8.9,86,0.00,,,0.00,WUHU216HW,2013-11-07 08:04:00,
2013-11-07 09:09:00,49.8,45.7,29.73,SW,225,6.2,8.9,86,0.00,,,0.00,WUHU216HW,2013-11-07 08:09:00,
2013-11-07 09:14:00,50.0,45.5,29.73,West,270,2.4,8.0,85,0.00,,,0.00,WUHU216HW,2013-11-07 08:14:00,
2013-11-07 09:19:00,50.3,45.9,29.73,NW,315,4.6,6.2,85,0.00,,,0.00,WUHU216HW,2013-11-07 08:19:00,
2013-11-07 09:24:00,50.3,45.6,29.73,WSW,248,8.0,8.0,84,0.00,,,0.00,WUHU216HW,2013-11-07 08:24:00,
2013-11-07 09:29:00,50.7,45.6,29.73,SW,225,5.3,9.1,83,0.00,,,0.00,WUHU216HW,2013-11-07 08:29:00,
2013-11-07 09:34:00,50.7,45.6,29.73,WSW,248,2.6,10.0,83,0.00,,,0.00,WUHU216HW,2013-11-07 08:34:00,
2013-11-07 09:39:00,50.9,45.8,29.74,WNW,293,0.0,10.0,83,0.00,,,0.00,WUHU216HW,2013-11-07 08:39:00,
2013-11-07 09:44:00,51.0,45.7,29.73,WNW,293,4.2,5.3,82,0.00,,,0.00,WUHU216HW,2013-11-07 08:44:00,
2013-11-07 09:49:00,51.2,45.9,29.73,West,270,4.6,8.0,82,0.00,,,0.00,WUHU216HW,2013-11-07 08:49:00,
2013-11-07 09:54:00,51.2,45.6,29.73,SSW,203,5.3,8.0,81,0.00,,,0.00,WUHU216HW,2013-11-07 08:54:00,
2013-11-07 09:59:00,51.4,45.8,29.74,SW,225,10.2,10.2,81,0.00,,,0.00,WUHU216HW,2013-11-07 08:59:00,
2013-11-07 10:04:00,51.4,45.8,29.73,SW,225,3.1,10.2,81,0.00,,,0.00,WUHU216HW,2013-11-07 09:04:00,
2013-11-07 10:09:00,51.8,46.1,29.73,WSW,248,5.1,8.5,81,0.00,,,0.00,WUHU216HW,2013-11-07 09:09:00,
2013-11-07 10:14:00,52.3,46.7,29.74,WSW,248,3.1,7.6,81,0.00,,,0.00,WUHU216HW,2013-11-07 09:14:00,
2013-11-07 10:19:00,52.8,46.9,29.74,SW,225,5.3,6.4,80,0.00,,,0.00,WUHU216HW,2013-11-07 09:19:00,
2013-11-07 10:24:00,53.4,47.4,29.74,West,270,6.2,6.4,80,0.00,,,0.00,WUHU216HW,2013-11-07 09:24:00,
2013-11-07 10:29:00,54.6,48.2,29.73,North,0,0.0,6.4,79,0.00,,,0.00,WUHU216HW,2013-11-07 09:29:00,
2013-11-07 10:34:00,55.2,48.0,29.73,SW,225,6.2,6.2,77,0.00,,,0.00,WUHU216HW,2013-11-07 09:34:00,
2013-11-07 10:39:00,55.5,48.2,29.74,SW,225,2.9,8.9,77,0.00,,,0.00,WUHU216HW,2013-11-07 09:39:00,
2013-11-07 10:44:00,55.2,47.7,29.74,WSW,248,5.3,8.9,76,0.00,,,0.00,WUHU216HW,2013-11-07 09:44:00,
2013-11-07 10:49:00,55.0,47.5,29.74,SSW,203,2.9,8.9,76,0.00,,,0.00,WUHU216HW,2013-11-07 09:49:00,
2013-11-07 10:54:00,55.0,47.5,29.74,SSE,158,0.0,6.4,76,0.00,,,0.00,WUHU216HW,2013-11-07 09:54:00,
2013-11-07 10:59:00,55.2,48.0,29.74,SSW,203,2.4,6.4,77,0.00,,,0.00,WUHU216HW,2013-11-07 09:59:00,
2013-11-07 11:04:00,56.8,49.2,29.75,SSE,158,5.1,8.5,76,0.00,,,0.00,WUHU216HW,2013-11-07 10:04:00,
2013-11-07 11:09:00,58.2,50.0,29.74,South,180,3.8,8.7,74,0.00,,,0.00,WUHU216HW,2013-11-07 10:09:00,
2013-11-07 11:14:00,58.4,49.4,29.74,WSW,248,2.9,8.7,72,0.00,,,0.00,WUHU216HW,2013-11-07 10:14:00,
2013-11-07 11:19:00,58.2,49.6,29.74,West,270,3.8,6.0,73,0.00,,,0.00,WUHU216HW,2013-11-07 10:19:00,
2013-11-07 11:24:00,57.9,49.2,29.74,WNW,293,5.3,6.0,73,0.00,,,0.00,WUHU216HW,2013-11-07 10:24:00,
2013-11-07 11:29:00,57.9,49.2,29.74,WNW,293,3.1,5.3,73,0.00,,,0.00,WUHU216HW,2013-11-07 10:29:00,
2013-11-07 11:34:00,57.7,49.1,29.74,West,270,6.0,6.0,73,0.00,,,0.00,WUHU216HW,2013-11-07 10:34:00,
2013-11-07 11:39:00,57.7,49.1,29.74,SSW,203,0.0,6.0,73,0.00,,,0.00,WUHU216HW,2013-11-07 10:39:00,
2013-11-07 11:44:00,57.5,48.9,29.74,SSW,203,7.6,7.6,73,0.00,,,0.00,WUHU216HW,2013-11-07 10:44:00,
2013-11-07 11:49:00,57.5,48.9,29.75,SW,225,3.3,7.8,73,0.00,,,0.00,WUHU216HW,2013-11-07 10:49:00,
2013-11-07 11:54:00,57.3,48.7,29.74,West,270,5.3,7.8,73,0.00,,,0.00,WUHU216HW,2013-11-07 10:54:00,
2013-11-07 11:59:00,57.3,48.3,29.74,WNW,293,3.1,8.0,72,0.00,,,0.00,WUHU216HW,2013-11-07 10:59:00,
2013-11-07 12:04:00,57.3,48.3,29.73,West,270,0.0,8.0,72,0.00,,,0.00,WUHU216HW,2013-11-07 11:04:00,
2013-11-07 12:09:00,57.7,48.9,29.73,South,180,0.6,3.1,72,0.00,,,0.00,WUHU216HW,2013-11-07 11:09:00,
2013-11-07 12:14:00,58.2,49.2,29.73,WNW,293,0.6,2.2,72,0.00,,,0.00,WUHU216HW,2013-11-07 11:14:00,
2013-11-07 12:19:00,58.8,49.8,29.74,NNW,338,0.0,3.5,72,0.00,,,0.00,WUHU216HW,2013-11-07 11:19:00,
2013-11-07 12:24:00,58.2,49.1,29.75,South,180,2.9,5.1,71,0.00,,,0.00,WUHU216HW,2013-11-07 11:24:00,
2013-11-07 12:29:00,58.4,49.1,29.75,NNW,338,4.0,5.1,71,0.00,,,0.00,WUHU216HW,2013-11-07 11:29:00,
2013-11-07 12:34:00,58.2,48.9,29.75,SSW,203,3.3,5.3,71,0.00,,,0.00,WUHU216HW,2013-11-07 11:34:00,
2013-11-07 12:39:00,58.2,48.9,29.75,WSW,248,0.0,5.3,71,0.00,,,0.00,WUHU216HW,2013-11-07 11:39:00,
2013-11-07 12:44:00,57.9,48.5,29.75,West,270,3.1,4.2,71,0.00,,,0.00,WUHU216HW,2013-11-07 11:44:00,
2013-11-07 12:49:00,57.9,48.5,29.75,NW,315,1.5,4.2,71,0.00,,,0.00,WUHU216HW,2013-11-07 11:49:00,
2013-11-07 12:54:00,57.9,48.5,29.75,West,270,2.4,2.4,71,0.00,,,0.00,WUHU216HW,2013-11-07 11:54:00,
2013-11-07 12:59:00,57.7,48.3,29.74,SW,225,0.0,4.6,71,0.00,,,0.00,WUHU216HW,2013-11-07 11:59:00,
2013-11-07 13:04:00,57.7,48.3,29.74,SW,225,2.2,4.6,71,0.00,,,0.00,WUHU216HW,2013-11-07 12:04:00,
2013-11-07 13:09:00,57.7,48.0,29.74,SSW,203,0.0,4.4,70,0.00,,,0.00,WUHU216HW,2013-11-07 12:09:00,
2013-11-07 13:14:00,57.7,48.0,29.75,West,270,0.0,4.4,70,0.00,,,0.00,WUHU216HW,2013-11-07 12:14:00,
2013-11-07 13:19:00,57.7,48.3,29.75,South,180,2.9,4.9,71,0.00,,,0.00,WUHU216HW,2013-11-07 12:19:00,
2013-11-07 13:24:00,57.9,48.5,29.75,SE,135,2.4,4.9,71,0.00,,,0.00,WUHU216HW,2013-11-07 12:24:00,
2013-11-07 13:29:00,57.9,48.5,29.74,East,90,0.0,3.1,71,0.00,,,0.00,WUHU216HW,2013-11-07 12:29:00,
2013-11-07 13:34:00,57.9,48.2,29.74,NW,315,0.6,3.1,70,0.00,,,0.00,WUHU216HW,2013-11-07 12:34:00,
2013-11-07 13:39:00,57.9,48.2,29.74,West,270,2.0,4.9,70,0.00,,,0.00,WUHU216HW,2013-11-07 12:39:00,
2013-11-07 13:44:00,58.1,48.2,29.74,West,270,2.4,4.9,70,0.00,,,0.00,WUHU216HW,2013-11-07 12:44:00,
2013-11-07 13:49:00,57.9,48.2,29.75,WSW,248,3.5,4.6,70,0.00,,,0.00,WUHU216HW,2013-11-07 12:49:00,
2013-11-07 13:54:00,57.9,48.2,29.75,WNW,293,1.5,4.2,70,0.00,,,0.00,WUHU216HW,2013-11-07 12:54:00,
2013-11-07 13:59:00,57.7,48.0,29.75,SSW,203,1.1,4.2,70,0.00,,,0.00,WUHU216HW,2013-11-07 12:59:00,
2013-11-07 14:04:00,57.7,48.0,29.74,NW,315,0.0,4.2,70,0.00,,,0.00,WUHU216HW,2013-11-07 13:04:00,
2013-11-07 14:09:00,57.7,48.0,29.74,WNW,293,2.2,3.8,70,0.00,,,0.00,WUHU216HW,2013-11-07 13:09:00,
2013-11-07 14:14:00,57.5,47.8,29.75,WSW,248,0.0,2.2,70,0.00,,,0.00,WUHU216HW,2013-11-07 13:14:00,
2013-11-07 14:19:00,57.3,48.0,29.75,WSW,248,1.5,1.5,71,0.00,,,0.00,WUHU216HW,2013-11-07 13:19:00,
2013-11-07 14:24:00,57.5,48.2,29.75,West,270,1.5,2.9,71,0.00,,,0.00,WUHU216HW,2013-11-07 13:24:00,
2013-11-07 14:29:00,57.5,48.2,29.75,West,270,0.0,2.9,71,0.00,,,0.00,WUHU216HW,2013-11-07 13:29:00,
2013-11-07 14:34:00,57.5,48.2,29.76,NW,315,0.6,2.6,71,0.00,,,0.00,WUHU216HW,2013-11-07 13:34:00,
2013-11-07 14:39:00,57.5,48.3,29.76,SSW,203,0.0,1.3,71,0.00,,,0.00,WUHU216HW,2013-11-07 13:39:00,
2013-11-07 14:44:00,57.5,48.2,29.76,West,270,0.0,1.3,71,0.00,,,0.00,WUHU216HW,2013-11-07 13:44:00,
2013-11-07 14:49:00,57.5,48.2,29.76,NW,315,0.0,0.8,71,0.00,,,0.00,WUHU216HW,2013-11-07 13:49:00,
2013-11-07 14:54:00,57.5,48.2,29.76,NW,315,0.0,0.0,71,0.00,,,0.00,WUHU216HW,2013-11-07 13:54:00,
2013-11-07 14:59:00,57.5,48.2,29.76,NW,315,0.0,3.1,71,0.00,,,0.00,WUHU216HW,2013-11-07 13:59:00,
2013-11-07 15:04:00,57.5,48.2,29.75,NW,315,3.5,3.5,71,0.00,,,0.00,WUHU216HW,2013-11-07 14:04:00,
2013-11-07 15:09:00,57.7,48.3,29.76,NW,315,1.3,3.8,71,0.00,,,0.00,WUHU216HW,2013-11-07 14:09:00,
2013-11-07 15:14:00,57.5,48.2,29.76,NW,315,4.9,6.0,71,0.00,,,0.00,WUHU216HW,2013-11-07 14:14:00,
2013-11-07 15:19:00,57.5,48.2,29.76,WNW,293,1.5,6.0,71,0.00,,,0.00,WUHU216HW,2013-11-07 14:19:00,
2013-11-07 15:24:00,57.5,48.2,29.76,NW,315,3.3,4.4,71,0.00,,,0.00,WUHU216HW,2013-11-07 14:24:00,
2013-11-07 15:29:00,57.7,48.3,29.76,NNW,338,2.0,4.0,71,0.00,,,0.00,WUHU216HW,2013-11-07 14:29:00,
2013-11-07 15:34:00,57.5,48.2,29.76,WNW,293,2.2,3.3,71,0.00,,,0.00,WUHU216HW,2013-11-07 14:34:00,
2013-11-07 15:39:00,57.3,48.0,29.76,West,270,0.0,3.3,71,0.00,,,0.00,WUHU216HW,2013-11-07 14:39:00,
2013-11-07 15:44:00,57.3,48.3,29.76,WNW,293,0.0,3.3,72,0.00,,,0.00,WUHU216HW,2013-11-07 14:44:00,
2013-11-07 15:49:00,57.0,48.0,29.76,NW,315,2.0,2.0,72,0.00,,,0.00,WUHU216HW,2013-11-07 14:49:00,
2013-11-07 15:54:00,57.0,48.0,29.76,WNW,293,0.6,2.0,72,0.00,,,0.00,WUHU216HW,2013-11-07 14:54:00,
2013-11-07 15:59:00,56.8,48.2,29.76,NW,315,1.1,1.3,73,0.00,,,0.00,WUHU216HW,2013-11-07 14:59:00,
2013-11-07 16:04:00,56.8,48.2,29.76,North,0,0.0,1.5,73,0.00,,,0.00,WUHU216HW,2013-11-07 15:04:00,
2013-11-07 16:09:00,56.4,47.8,29.76,West,270,1.3,2.6,73,0.00,,,0.00,WUHU216HW,2013-11-07 15:09:00,
2013-11-07 16:14:00,56.3,47.7,29.76,NW,315,0.0,2.6,73,0.00,,,0.00,WUHU216HW,2013-11-07 15:14:00,
2013-11-07 16:19:00,55.9,47.7,29.76,NW,315,0.0,2.2,74,0.00,,,0.00,WUHU216HW,2013-11-07 15:19:00,
2013-11-07 16:24:00,55.4,47.5,29.76,SSW,203,0.0,1.1,75,0.00,,,0.00,WUHU216HW,2013-11-07 15:24:00,
2013-11-07 16:29:00,54.8,47.3,29.76,WSW,248,0.0,1.1,76,0.00,,,0.00,WUHU216HW,2013-11-07 15:29:00,
2013-11-07 16:34:00,54.3,47.2,29.77,WSW,248,0.0,0.0,77,0.00,,,0.00,WUHU216HW,2013-11-07 15:34:00,
2013-11-07 16:39:00,54.1,47.0,29.77,West,270,0.0,0.0,77,0.00,,,0.00,WUHU216HW,2013-11-07 15:39:00,
2013-11-07 16:44:00,54.1,47.4,29.77,WSW,248,0.0,1.3,78,0.00,,,0.00,WUHU216HW,2013-11-07 15:44:00,
2013-11-07 16:49:00,54.1,47.4,29.77,West,270,1.5,2.2,78,0.00,,,0.00,WUHU216HW,2013-11-07 15:49:00,
2013-11-07 16:54:00,53.9,47.2,29.78,West,270,2.0,2.2,78,0.00,,,0.00,WUHU216HW,2013-11-07 15:54:00,
2013-11-07 16:59:00,53.7,47.1,29.78,WNW,293,2.4,2.4,78,0.00,,,0.00,WUHU216HW,2013-11-07 15:59:00,
2013-11-07 17:04:00,53.6,46.9,29.78,West,270,0.0,2.9,78,0.00,,,0.00,WUHU216HW,2013-11-07 16:04:00,
2013-11-07 17:09:00,53.4,47.1,29.78,West,270,0.0,2.9,79,0.00,,,0.00,WUHU216HW,2013-11-07 16:09:00,
2013-11-07 17:14:00,53.2,46.9,29.78,West,270,1.7,1.7,79,0.00,,,0.00,WUHU216HW,2013-11-07 16:14:00,
2013-11-07 17:19:00,53.2,47.3,29.78,West,270,1.3,1.7,80,0.00,,,0.00,WUHU216HW,2013-11-07 16:19:00,
2013-11-07 17:24:00,52.8,46.9,29.78,West,270,3.1,3.1,80,0.00,,,0.00,WUHU216HW,2013-11-07 16:24:00,
2013-11-07 17:29:00,52.8,46.9,29.78,WNW,293,2.4,3.1,80,0.00,,,0.00,WUHU216HW,2013-11-07 16:29:00,
2013-11-07 17:34:00,52.8,47.2,29.78,West,270,2.6,2.6,81,0.00,,,0.00,WUHU216HW,2013-11-07 16:34:00,
2013-11-07 17:39:00,53.4,47.7,29.78,West,270,2.2,2.6,81,0.00,,,0.00,WUHU216HW,2013-11-07 16:39:00,
2013-11-07 17:44:00,53.7,47.8,29.78,WSW,248,2.9,2.9,80,0.00,,,0.00,WUHU216HW,2013-11-07 16:44:00,
2013-11-07 17:49:00,53.9,47.9,29.78,WNW,293,2.0,2.9,80,0.00,,,0.00,WUHU216HW,2013-11-07 16:49:00,
2013-11-07 17:54:00,54.1,48.1,29.78,West,270,2.4,3.5,80,0.00,,,0.00,WUHU216HW,2013-11-07 16:54:00,
2013-11-07 17:59:00,54.1,48.1,29.78,West,270,2.0,3.8,80,0.00,,,0.00,WUHU216HW,2013-11-07 16:59:00,
2013-11-07 18:04:00,53.6,47.6,29.78,West,270,2.0,3.8,80,0.00,,,0.00,WUHU216HW,2013-11-07 17:04:00,
2013-11-07 18:09:00,53.4,47.4,29.78,WNW,293,1.3,3.1,80,0.00,,,0.00,WUHU216HW,2013-11-07 17:09:00,
2013-11-07 18:14:00,53.0,47.1,29.79,West,270,0.0,3.1,80,0.00,,,0.00,WUHU216HW,2013-11-07 17:14:00,
2013-11-07 18:19:00,52.3,46.7,29.79,WSW,248,0.0,0.8,81,0.00,,,0.00,WUHU216HW,2013-11-07 17:19:00,
2013-11-07 18:24:00,51.6,45.9,29.80,NNW,338,0.0,0.0,81,0.00,,,0.00,WUHU216HW,2013-11-07 17:24:00,
2013-11-07 18:29:00,51.0,45.7,29.81,WSW,248,0.0,0.0,82,0.00,,,0.00,WUHU216HW,2013-11-07 17:29:00,
2013-11-07 18:34:00,51.0,45.5,29.81,WSW,248,2.9,3.8,82,0.00,,,0.00,WUHU216HW,2013-11-07 17:34:00,
2013-11-07 18:39:00,51.9,47.1,29.80,West,270,3.8,5.1,83,0.00,,,0.00,WUHU216HW,2013-11-07 17:39:00,
2013-11-07 18:44:00,53.2,47.9,29.81,West,270,4.4,6.0,82,0.00,,,0.00,WUHU216HW,2013-11-07 17:44:00,
2013-11-07 18:49:00,53.4,48.0,29.80,WSW,248,4.4,6.0,82,0.00,,,0.00,WUHU216HW,2013-11-07 17:49:00,
2013-11-07 18:54:00,53.6,47.9,29.80,WSW,248,3.8,5.3,81,0.00,,,0.00,WUHU216HW,2013-11-07 17:54:00,
2013-11-07 18:58:00,53.7,48.1,29.80,WSW,248,2.0,5.3,81,0.00,,,0.00,WUHU216HW,2013-11-07 17:58:00,
2013-11-07 19:03:00,53.6,47.6,29.81,WSW,248,2.9,3.8,80,0.00,,,0.00,WUHU216HW,2013-11-07 18:03:00,
2013-11-07 19:08:00,53.4,47.4,29.80,WSW,248,2.2,3.1,80,0.00,,,0.00,WUHU216HW,2013-11-07 18:08:00,
2013-11-07 19:13:00,53.4,47.4,29.81,WSW,248,0.0,3.1,80,0.00,,,0.00,WUHU216HW,2013-11-07 18:13:00,
2013-11-07 19:18:00,52.8,46.9,29.81,WNW,293,4.4,4.6,80,0.00,,,0.00,WUHU216HW,2013-11-07 18:18:00,
2013-11-07 19:23:00,53.2,47.3,29.81,WNW,293,2.4,4.6,80,0.00,,,0.00,WUHU216HW,2013-11-07 18:23:00,
2013-11-07 19:28:00,53.7,47.6,29.81,NW,315,4.9,5.8,80,0.00,,,0.00,WUHU216HW,2013-11-07 18:28:00,
2013-11-07 19:33:00,54.1,48.1,29.81,West,270,0.0,5.8,80,0.00,,,0.00,WUHU216HW,2013-11-07 18:33:00,
2013-11-07 19:38:00,54.3,48.3,29.81,West,270,5.1,5.1,80,0.00,,,0.00,WUHU216HW,2013-11-07 18:38:00,
2013-11-07 19:43:00,54.5,48.1,29.81,West,270,5.5,5.8,79,0.00,,,0.00,WUHU216HW,2013-11-07 18:43:00,
2013-11-07 19:48:00,55.2,48.4,29.81,West,270,6.2,7.8,79,0.00,,,0.00,WUHU216HW,2013-11-07 18:48:00,
2013-11-07 19:53:00,55.2,48.4,29.81,WNW,293,5.1,7.8,78,0.00,,,0.00,WUHU216HW,2013-11-07 18:53:00,
2013-11-07 19:58:00,55.2,48.4,29.81,WNW,293,7.1,7.1,78,0.00,,,0.00,WUHU216HW,2013-11-07 18:58:00,
2013-11-07 20:03:00,55.2,48.4,29.81,West,270,5.3,7.1,78,0.00,,,0.00,WUHU216HW,2013-11-07 19:03:00,
2013-11-07 20:08:00,55.5,48.4,29.81,WSW,248,2.4,6.9,77,0.00,,,0.00,WUHU216HW,2013-11-07 19:08:00,
2013-11-07 20:13:00,55.4,48.2,29.81,WSW,248,2.2,6.2,77,0.00,,,0.00,WUHU216HW,2013-11-07 19:13:00,
2013-11-07 20:18:00,55.2,48.0,29.81,NW,315,2.0,5.8,77,0.00,,,0.00,WUHU216HW,2013-11-07 19:18:00,
2013-11-07 20:23:00,55.2,48.0,29.81,NW,315,2.9,4.4,77,0.00,,,0.00,WUHU216HW,2013-11-07 19:23:00,
2013-11-07 20:28:00,55.2,48.0,29.81,NW,315,4.0,4.0,77,0.00,,,0.00,WUHU216HW,2013-11-07 19:28:00,
2013-11-07 20:33:00,55.7,48.7,29.82,West,270,3.1,5.1,77,0.00,,,0.00,WUHU216HW,2013-11-07 19:33:00,
2013-11-07 20:38:00,56.1,48.5,29.82,NW,315,7.6,7.6,76,0.00,,,0.00,WUHU216HW,2013-11-07 19:38:00,
2013-11-07 20:43:00,56.3,48.7,29.83,West,270,1.5,7.6,76,0.00,,,0.00,WUHU216HW,2013-11-07 19:43:00,
2013-11-07 20:48:00,56.1,48.5,29.84,NW,315,1.5,6.2,76,0.00,,,0.00,WUHU216HW,2013-11-07 19:48:00,
2013-11-07 20:53:00,55.9,48.4,29.84,WNW,293,4.6,6.2,76,0.00,,,0.00,WUHU216HW,2013-11-07 19:53:00,
2013-11-07 20:58:00,55.9,48.0,29.84,NE,45,0.0,5.1,75,0.00,,,0.00,WUHU216HW,2013-11-07 19:58:00,
2013-11-07 21:03:00,54.1,46.0,29.84,East,90,0.0,2.4,75,0.00,,,0.00,WUHU216HW,2013-11-07 20:03:00,
2013-11-07 21:08:00,51.9,44.9,29.83,North,0,0.0,0.0,77,0.00,,,0.00,WUHU216HW,2013-11-07 20:08:00,
2013-11-07 21:13:00,50.5,43.9,29.84,WNW,293,0.0,0.0,78,0.00,,,0.00,WUHU216HW,2013-11-07 20:13:00,
2013-11-07 21:18:00,49.6,43.7,29.84,NW,315,0.0,0.0,80,0.00,,,0.00,WUHU216HW,2013-11-07 20:18:00,
2013-11-07 21:23:00,49.1,43.4,29.85,NW,315,0.0,0.0,81,0.00,,,0.00,WUHU216HW,2013-11-07 20:23:00,
2013-11-07 21:28:00,48.9,43.4,29.85,NW,315,0.0,0.0,82,0.00,,,0.00,WUHU216HW,2013-11-07 20:28:00,
2013-11-07 21:36:00,48.7,43.7,29.85,NNW,338,0.0,0.0,83,0.00,,,0.00,WUHU216HW,2013-11-07 20:36:00,
2013-11-07 21:41:00,48.5,43.8,29.84,NNW,338,0.0,0.0,84,0.00,,,0.00,WUHU216HW,2013-11-07 20:41:00,
2013-11-07 21:46:00,48.0,43.3,29.85,NW,315,0.0,0.0,84,0.00,,,0.00,WUHU216HW,2013-11-07 20:46:00,
2013-11-07 21:51:00,48.0,43.7,29.85,NNW,338,0.0,0.0,85,0.00,,,0.00,WUHU216HW,2013-11-07 20:51:00,
2013-11-07 21:56:00,48.0,43.7,29.86,NW,315,0.0,1.5,85,0.00,,,0.00,WUHU216HW,2013-11-07 20:56:00,
2013-11-07 22:01:00,48.0,43.7,29.86,NW,315,0.0,1.5,85,0.00,,,0.00,WUHU216HW,2013-11-07 21:01:00,
2013-11-07 22:06:00,47.8,43.8,29.86,WSW,248,0.0,0.0,86,0.00,,,0.00,WUHU216HW,2013-11-07 21:06:00,
2013-11-07 22:11:00,47.4,43.5,29.86,WNW,293,0.0,0.0,86,0.00,,,0.00,WUHU216HW,2013-11-07 21:11:00,
2013-11-07 22:16:00,47.3,43.3,29.86,West,270,0.0,0.0,86,0.00,,,0.00,WUHU216HW,2013-11-07 21:16:00,
2013-11-07 22:21:00,47.1,43.1,29.86,NW,315,0.0,0.0,86,0.00,,,0.00,WUHU216HW,2013-11-07 21:21:00,
2013-11-07 22:26:00,47.1,43.1,29.87,NW,315,0.0,0.0,86,0.00,,,0.00,WUHU216HW,2013-11-07 21:26:00,
2013-11-07 22:31:00,47.1,43.4,29.86,WNW,293,0.0,0.0,87,0.00,,,0.00,WUHU216HW,2013-11-07 21:31:00,
2013-11-07 22:36:00,46.9,43.3,29.87,WNW,293,0.0,0.0,87,0.00,,,0.00,WUHU216HW,2013-11-07 21:36:00,
2013-11-07 22:41:00,46.5,42.9,29.87,WNW,293,0.0,0.0,87,0.00,,,0.00,WUHU216HW,2013-11-07 21:41:00,
2013-11-07 22:46:00,46.5,42.9,29.87,WNW,293,0.0,0.0,87,0.00,,,0.00,WUHU216HW,2013-11-07 21:46:00,
2013-11-07 22:51:00,46.2,42.6,29.87,North,0,0.0,0.0,87,0.00,,,0.00,WUHU216HW,2013-11-07 21:51:00,
2013-11-07 22:56:00,46.0,42.7,29.87,NNW,338,0.0,0.0,87,0.00,,,0.00,WUHU216HW,2013-11-07 21:56:00,
2013-11-07 23:01:00,46.0,42.7,29.88,NNE,23,0.0,0.0,88,0.00,,,0.00,WUHU216HW,2013-11-07 22:01:00,
2013-11-07 23:06:00,45.6,42.3,29.88,NW,315,0.0,0.0,88,0.00,,,0.00,WUHU216HW,2013-11-07 22:06:00,
2013-11-07 23:11:00,46.2,42.9,29.88,NW,315,0.0,0.0,88,0.00,,,0.00,WUHU216HW,2013-11-07 22:11:00,
2013-11-07 23:16:00,47.1,43.7,29.88,WNW,293,1.5,1.7,88,0.00,,,0.00,WUHU216HW,2013-11-07 22:16:00,
2013-11-07 23:21:00,47.4,44.1,29.87,North,0,0.0,2.2,88,0.00,,,0.00,WUHU216HW,2013-11-07 22:21:00,
2013-11-07 23:26:00,47.1,43.7,29.88,North,0,0.0,2.2,88,0.00,,,0.00,WUHU216HW,2013-11-07 22:26:00,
2013-11-07 23:31:00,47.1,44.0,29.87,SSE,158,0.0,0.0,89,0.00,,,0.00,WUHU216HW,2013-11-07 22:31:00,
2013-11-07 23:36:00,46.9,43.9,29.87,SW,225,0.0,0.0,89,0.00,,,0.00,WUHU216HW,2013-11-07 22:36:00,
2013-11-07 23:41:00,46.7,43.7,29.88,WNW,293,0.0,0.0,89,0.00,,,0.00,WUHU216HW,2013-11-07 22:41:00,
2013-11-07 23:46:00,46.5,43.2,29.88,West,270,0.0,0.0,88,0.00,,,0.00,WUHU216HW,2013-11-07 22:46:00,
2013-11-07 23:51:00,46.2,42.9,29.88,WNW,293,0.0,0.0,88,0.00,,,0.00,WUHU216HW,2013-11-07 22:51:00,
2013-11-07 23:56:00,46.2,42.9,29.87,NW,315,0.0,0.0,88,0.00,,,0.00,WUHU216HW,2013-11-07 22:56:00,